This is the latest recevied weather packets stored in our database for station/object LEMD. If no packets are shown the sender has not sent any weather packets the latest 10 day(s).
| Time | Temp. | Humidity | Pressure | Rain* | Wind** | Luminosity | Snow |
|---|---|---|---|---|---|---|---|
| 1777699805 | 15° C | 82% | 1019 hPa | - | - | - | - |
| 1777698904 | 15° C | 82% | 1019 hPa | - | - | - | - |
| 1777698005 | 15° C | 82% | 1019 hPa | - | - | - | - |
| 1777697105 | 15° C | 82% | 1019 hPa | - | - | - | - |
| 1777695304 | 15° C | 82% | 1019 hPa | - | - | - | - |
| 1777694404 | 15° C | 82% | 1019 hPa | - | - | - | - |
| 1777693503 | 15° C | 82% | 1019 hPa | - | - | - | - |
| 1777691704 | 15° C | 82% | 1019 hPa | - | - | - | - |
| 1777690804 | 15° C | 76% | 1019 hPa | - | - | - | - |
| 1777689904 | 15° C | 76% | 1019 hPa | - | - | - | - |
| 1777649404 | 25° C | 31% | 1018 hPa | - | - | - | - |
| 1777648505 | 25° C | 31% | 1018 hPa | - | - | - | - |
| 1777647604 | 25° C | 29% | 1018 hPa | - | - | - | - |
| 1777645804 | 23.89° C | 33% | 1019 hPa | - | - | - | - |
| 1777642204 | 22.78° C | 35% | 1019 hPa | - | - | - | - |
| 1777637704 | 22.22° C | 40% | 1019 hPa | - | - | - | - |
| 1777636804 | 22.22° C | 40% | 1019 hPa | - | - | - | - |
| 1777635004 | 21.11° C | 46% | 1020 hPa | - | - | - | - |
| 1777629604 | 17.22° C | 59% | 1020 hPa | - | - | - | - |
| 1777626904 | 17.22° C | 63% | 1020 hPa | - | - | - | - |
| 1777626004 | 15° C | 62% | 1020 hPa | - | - | - | - |
| 1777623304 | 12.78° C | 71% | 1020 hPa | - | - | - | - |
| 1777621503 | 12.22° C | 81% | 1019 hPa | - | - | - | - |
| 1777619704 | 11.11° C | 81% | 1019 hPa | - | - | - | - |
| 1777615204 | 8.89° C | 93% | 1019 hPa | - | - | - | - |
* Rain since midnight (hover to see other rain measurements)
** Current wind speed in m/s (hover to see current wind gust speed)